Terminal Aerodrome Forecast
Issued by NWS

Home | Current Version | Previous Version | Text Only | Print | Product List | Glossary On
Versions: 1 2 3 4 5 6 7 8 9 10 11 12 13 14 15
000
FTUS41 KBTV 212300
TAFMSS
TAF
KMSS 212336Z 2200/2224 22009KT P6SM BKN120
     FM220500 25012KT P6SM SCT025 BKN150
     FM220700 27014G20KT P6SM OVC025
     FM221400 27014G24KT P6SM OVC025=

USA.gov is the U.S. government's official web portal to all federal, state and local government web resources and services.